Time;durP1;ratioP1;P1;durP2;ratioP2;P2;SDS_P1;SDS_P2;PMS_P1;PMS_P2;Temp;Humidity;BMP_temperature;BMP_pressure;BME280_temperature;BME280_humidity;BME280_pressure;Samples;Min_cycle;Max_cycle;Signal;HPM_P1;HPM_P2
2021/08/12 00:01:59;;;;;;;2.25;1.42;;;;;;;;;;2616295;54;20014;-59
2021/08/12 00:04:24;;;;;;;2.38;1.40;;;;;;;;;;2616387;54;20015;-59
2021/08/12 00:06:50;;;;;;;1.15;0.85;;;;;;;;;;2615875;54;20026;-59
2021/08/12 00:09:15;;;;;;;1.70;1.30;;;;;;;;;;2616245;54;20014;-59
2021/08/12 00:11:41;;;;;;;2.20;1.40;;;;;;;;;;2616061;54;20049;-59
2021/08/12 00:14:06;;;;;;;1.80;1.27;;;;;;;;;;2616174;54;20015;-59
2021/08/12 00:16:32;;;;;;;1.88;1.33;;;;;;;;;;2616115;54;20023;-59
2021/08/12 00:18:58;;;;;;;2.15;1.02;;;;;;;;;;2616518;54;20014;-59
2021/08/12 00:21:24;;;;;;;1.50;0.98;;;;;;;;;;2616176;54;20015;-59
2021/08/12 00:23:51;;;;;;;1.77;1.23;;;;;;;;;;2616937;39;20189;-59
2021/08/12 00:26:16;;;;;;;2.35;1.75;;;;;;;;;;2616391;39;20581;-60
2021/08/12 00:28:41;;;;;;;1.48;1.00;;;;;;;;;;2616031;54;20039;-59
2021/08/12 00:31:07;;;;;;;2.10;1.55;;;;;;;;;;2616252;54;20029;-60
2021/08/12 00:33:34;;;;;;;2.33;1.25;;;;;;;;;;2615902;54;20023;-59
2021/08/12 00:36:00;;;;;;;1.75;1.17;;;;;;;;;;2616818;39;20373;-59
2021/08/12 00:38:25;;;;;;;2.03;1.38;;;;;;;;;;2615909;54;20014;-59
2021/08/12 00:40:51;;;;;;;2.00;1.25;;;;;;;;;;2616300;54;20015;-59
2021/08/12 00:43:16;;;;;;;2.00;1.30;;;;;;;;;;2616131;54;20026;-59
2021/08/12 00:45:41;;;;;;;1.20;0.82;;;;;;;;;;2616541;39;20404;-59
2021/08/12 00:48:07;;;;;;;2.92;1.75;;;;;;;;;;2616250;54;20429;-59
2021/08/12 00:50:34;;;;;;;2.03;1.17;;;;;;;;;;2615809;54;20026;-59
2021/08/12 00:52:59;;;;;;;8.57;1.33;;;;;;;;;;2616781;39;20393;-60
2021/08/12 00:55:25;;;;;;;0.93;0.73;;;;;;;;;;2616362;54;20090;-60
2021/08/12 00:57:50;;;;;;;2.05;1.05;;;;;;;;;;2615754;54;20053;-58
2021/08/12 01:00:16;;;;;;;1.45;1.02;;;;;;;;;;2616142;39;20358;-58
2021/08/12 01:02:41;;;;;;;2.58;1.63;;;;;;;;;;2615429;54;20110;-58
2021/08/12 01:05:09;;;;;;;2.30;1.58;;;;;;;;;;2615560;54;20512;-58
2021/08/12 01:08:08;;;;;;;2.75;1.75;;;;;;;;;;2616013;54;20125;-58
2021/08/12 01:10:43;;;;;;;1.83;1.38;;;;;;;;;;2615706;54;20022;-59
2021/08/12 01:13:34;;;;;;;2.38;1.73;;;;;;;;;;2616130;54;20026;-59
2021/08/12 01:16:01;;;;;;;1.60;1.20;;;;;;;;;;2614837;54;20023;-58
2021/08/12 01:18:38;;;;;;;1.35;0.98;;;;;;;;;;2615815;54;20025;-58
2021/08/12 01:21:22;;;;;;;2.13;1.48;;;;;;;;;;2616041;54;20065;-59
2021/08/12 01:23:48;;;;;;;4.00;2.15;;;;;;;;;;2615900;54;20074;-58
2021/08/12 01:26:18;;;;;;;2.08;1.33;;;;;;;;;;2616139;54;20560;-58
2021/08/12 01:28:46;;;;;;;1.48;1.00;;;;;;;;;;2615647;54;20098;-59
2021/08/12 01:31:26;;;;;;;1.40;1.02;;;;;;;;;;2616074;54;20022;-58
2021/08/12 01:34:03;;;;;;;1.73;1.23;;;;;;;;;;2616084;54;20027;-58
2021/08/12 01:36:30;;;;;;;2.85;1.27;;;;;;;;;;2615895;54;20098;-58
2021/08/12 01:38:57;;;;;;;1.90;1.30;;;;;;;;;;2615960;54;20018;-58
2021/08/12 01:41:25;;;;;;;1.95;1.58;;;;;;;;;;2615694;54;20037;-58
2021/08/12 01:43:50;;;;;;;1.52;1.05;;;;;;;;;;2615890;54;20066;-59
2021/08/12 01:46:16;;;;;;;1.23;0.90;;;;;;;;;;2616047;54;20010;-59
2021/08/12 01:48:42;;;;;;;1.30;0.82;;;;;;;;;;2615826;54;20010;-58
2021/08/12 01:51:08;;;;;;;1.90;1.35;;;;;;;;;;2616391;39;20348;-58
2021/08/12 01:53:34;;;;;;;2.25;1.55;;;;;;;;;;2615544;54;20027;-59
2021/08/12 01:56:01;;;;;;;1.52;0.90;;;;;;;;;;2616429;39;20776;-59
2021/08/12 01:58:29;;;;;;;2.85;1.58;;;;;;;;;;2615768;54;20010;-59
2021/08/12 02:00:56;;;;;;;1.85;1.23;;;;;;;;;;2615604;54;20027;-58
2021/08/12 02:03:24;;;;;;;1.55;1.02;;;;;;;;;;2615687;54;20041;-59
2021/08/12 02:05:50;;;;;;;3.28;1.23;;;;;;;;;;2615583;54;20026;-59
2021/08/12 02:08:20;;;;;;;3.60;1.88;;;;;;;;;;2615825;54;20014;-58
2021/08/12 02:10:49;;;;;;;1.88;1.10;;;;;;;;;;2615689;54;20049;-59
2021/08/12 02:13:14;;;;;;;1.40;0.98;;;;;;;;;;2616021;54;20018;-60
2021/08/12 02:15:40;;;;;;;1.67;1.27;;;;;;;;;;2615835;54;20022;-60
2021/08/12 02:18:06;;;;;;;3.10;1.70;;;;;;;;;;2616398;54;20011;-61
2021/08/12 02:20:32;;;;;;;3.80;1.92;;;;;;;;;;2616406;54;20031;-60
2021/08/12 02:23:03;;;;;;;2.40;1.52;;;;;;;;;;2616847;54;20006;-61
2021/08/12 02:25:36;;;;;;;2.58;1.77;;;;;;;;;;2616473;54;20021;-60
2021/08/12 02:28:08;;;;;;;2.65;1.27;;;;;;;;;;2616524;54;20493;-60
2021/08/12 02:30:36;;;;;;;1.52;1.00;;;;;;;;;;2616421;47;20370;-60
2021/08/12 02:33:06;;;;;;;1.52;1.00;;;;;;;;;;2617346;31;20448;-60
2021/08/12 02:35:35;;;;;;;1.55;1.00;;;;;;;;;;2616518;54;20010;-60
2021/08/12 02:38:01;;;;;;;3.15;1.73;;;;;;;;;;2616250;54;20114;-60
2021/08/12 02:40:29;;;;;;;1.75;1.23;;;;;;;;;;2616446;54;20141;-60
2021/08/12 02:42:55;;;;;;;1.85;1.30;;;;;;;;;;2616466;54;20551;-60
2021/08/12 02:45:21;;;;;;;1.92;1.20;;;;;;;;;;2616116;54;20069;-60
2021/08/12 02:47:48;;;;;;;2.75;1.33;;;;;;;;;;2616886;54;20014;-60
2021/08/12 02:50:15;;;;;;;2.08;1.38;;;;;;;;;;2616445;54;20011;-60
2021/08/12 02:52:40;;;;;;;2.05;1.42;;;;;;;;;;2613433;54;20014;-60
2021/08/12 02:55:07;;;;;;;5.95;1.60;;;;;;;;;;2616030;54;20528;-60
2021/08/12 02:57:33;;;;;;;1.80;1.35;;;;;;;;;;2616461;54;20019;-60
2021/08/12 02:59:59;;;;;;;1.55;1.17;;;;;;;;;;2616518;54;20049;-60
2021/08/12 03:02:24;;;;;;;2.78;1.95;;;;;;;;;;2616110;54;20026;-60
2021/08/12 03:04:50;;;;;;;1.60;1.17;;;;;;;;;;2615848;54;20011;-60
2021/08/12 03:07:18;;;;;;;1.45;0.90;;;;;;;;;;2616591;54;20083;-60
2021/08/12 03:09:47;;;;;;;2.05;1.50;;;;;;;;;;2616344;54;20015;-59
2021/08/12 03:12:12;;;;;;;1.58;1.10;;;;;;;;;;2616225;54;20065;-60
2021/08/12 03:14:39;;;;;;;2.72;1.85;;;;;;;;;;2616154;54;20015;-59
2021/08/12 03:17:04;;;;;;;2.63;1.20;;;;;;;;;;2616557;54;20010;-60
2021/08/12 03:19:30;;;;;;;1.58;1.15;;;;;;;;;;2616058;47;20030;-59
2021/08/12 03:22:04;;;;;;;2.45;1.40;;;;;;;;;;2616915;39;20402;-60
2021/08/12 03:24:33;;;;;;;2.53;1.52;;;;;;;;;;2617105;39;20331;-60
2021/08/12 03:26:59;;;;;;;1.52;1.02;;;;;;;;;;2616248;54;20740;-60
2021/08/12 03:29:24;;;;;;;3.25;1.83;;;;;;;;;;2616209;54;20037;-60
2021/08/12 03:31:49;;;;;;;2.45;1.67;;;;;;;;;;2616506;54;20018;-60
2021/08/12 03:34:15;;;;;;;1.52;1.10;;;;;;;;;;2616414;54;20027;-59
2021/08/12 03:36:40;;;;;;;1.73;1.08;;;;;;;;;;2616055;47;20057;-59
2021/08/12 03:39:06;;;;;;;3.15;1.77;;;;;;;;;;2616529;39;20387;-59
2021/08/12 03:41:31;;;;;;;2.25;1.30;;;;;;;;;;2616367;54;20018;-59
2021/08/12 03:43:57;;;;;;;2.50;1.85;;;;;;;;;;2616355;54;20739;-59
2021/08/12 03:46:22;;;;;;;2.40;1.55;;;;;;;;;;2616103;54;20501;-59
2021/08/12 03:48:48;;;;;;;1.70;1.15;;;;;;;;;;2616592;54;20157;-59
2021/08/12 03:51:13;;;;;;;2.53;1.55;;;;;;;;;;2616240;54;20014;-59
2021/08/12 03:53:38;;;;;;;2.40;1.48;;;;;;;;;;2616433;54;20022;-59
2021/08/12 03:56:04;;;;;;;2.05;1.30;;;;;;;;;;2615794;54;20051;-59
2021/08/12 03:58:29;;;;;;;2.15;1.50;;;;;;;;;;2616418;54;20011;-59
2021/08/12 04:00:55;;;;;;;1.88;1.27;;;;;;;;;;2616650;54;20011;-59
2021/08/12 04:03:21;;;;;;;2.83;1.52;;;;;;;;;;2616075;54;20719;-59
2021/08/12 04:05:47;;;;;;;2.10;1.42;;;;;;;;;;2616532;39;20332;-59
2021/08/12 04:08:12;;;;;;;2.03;1.25;;;;;;;;;;2616119;54;20911;-59
2021/08/12 04:10:38;;;;;;;1.83;1.27;;;;;;;;;;2616096;54;20011;-60
2021/08/12 04:13:04;;;;;;;2.08;1.52;;;;;;;;;;2616044;54;20803;-59
2021/08/12 04:15:30;;;;;;;1.40;1.02;;;;;;;;;;2615893;54;20018;-60
2021/08/12 04:17:55;;;;;;;2.45;1.65;;;;;;;;;;2616330;54;20014;-59
2021/08/12 04:20:20;;;;;;;1.95;1.42;;;;;;;;;;2616328;39;20352;-59
2021/08/12 04:22:46;;;;;;;2.28;1.33;;;;;;;;;;2616432;54;20022;-59
2021/08/12 04:25:12;;;;;;;3.63;1.50;;;;;;;;;;2616183;54;20046;-59
2021/08/12 04:27:38;;;;;;;2.20;1.60;;;;;;;;;;2616418;39;20369;-59
2021/08/12 04:30:08;;;;;;;4.55;1.98;;;;;;;;;;2616181;54;20014;-59
2021/08/12 04:32:37;;;;;;;2.38;1.58;;;;;;;;;;2616059;54;20015;-59
2021/08/12 04:35:07;;;;;;;3.65;1.90;;;;;;;;;;2616320;54;20036;-59
2021/08/12 04:37:37;;;;;;;2.28;1.55;;;;;;;;;;2616241;54;20022;-59
2021/08/12 04:40:04;;;;;;;1.47;0.87;;;;;;;;;;2615649;54;20030;-59
2021/08/12 04:42:29;;;;;;;5.05;1.75;;;;;;;;;;2616657;39;20571;-59
2021/08/12 04:44:55;;;;;;;1.65;1.08;;;;;;;;;;2616069;51;20045;-59
2021/08/12 04:47:20;;;;;;;1.83;1.20;;;;;;;;;;2616412;31;20443;-59
2021/08/12 04:49:46;;;;;;;1.70;1.13;;;;;;;;;;2615311;54;20034;-60
2021/08/12 04:52:11;;;;;;;4.10;1.60;;;;;;;;;;2615836;54;20061;-59
2021/08/12 04:54:36;;;;;;;2.35;1.58;;;;;;;;;;2615979;54;20020;-59
2021/08/12 04:57:02;;;;;;;1.77;1.17;;;;;;;;;;2616130;54;20015;-59
2021/08/12 04:59:27;;;;;;;2.25;1.48;;;;;;;;;;2616147;54;20469;-59
2021/08/12 05:01:54;;;;;;;2.38;1.33;;;;;;;;;;2615273;54;20022;-59
2021/08/12 05:04:19;;;;;;;2.03;1.35;;;;;;;;;;2616026;54;20485;-59
2021/08/12 05:06:44;;;;;;;2.78;2.03;;;;;;;;;;2616104;54;20025;-59
2021/08/12 05:09:10;;;;;;;3.20;1.55;;;;;;;;;;2616234;39;20450;-59
2021/08/12 05:11:35;;;;;;;3.85;1.48;;;;;;;;;;2616052;54;20026;-59
2021/08/12 05:14:00;;;;;;;6.90;1.70;;;;;;;;;;2616201;54;20015;-59
2021/08/12 05:16:26;;;;;;;2.33;1.70;;;;;;;;;;2615634;54;20010;-59
2021/08/12 05:18:51;;;;;;;2.15;1.45;;;;;;;;;;2615772;54;20023;-59
2021/08/12 05:21:17;;;;;;;4.40;1.75;;;;;;;;;;2615627;54;20011;-59
2021/08/12 05:23:42;;;;;;;1.77;1.17;;;;;;;;;;2615748;54;20018;-59
2021/08/12 05:26:08;;;;;;;1.52;1.02;;;;;;;;;;2615638;54;20045;-59
2021/08/12 05:28:33;;;;;;;1.23;0.90;;;;;;;;;;2615500;54;20035;-59
2021/08/12 05:31:02;;;;;;;2.50;1.48;;;;;;;;;;2615298;54;20154;-59
2021/08/12 05:33:28;;;;;;;1.63;1.10;;;;;;;;;;2615613;54;20026;-59
2021/08/12 05:35:53;;;;;;;1.75;1.20;;;;;;;;;;2615864;54;20034;-59
2021/08/12 05:38:18;;;;;;;2.47;1.50;;;;;;;;;;2615604;54;20033;-60
2021/08/12 05:40:44;;;;;;;1.38;0.88;;;;;;;;;;2615654;54;20090;-59
2021/08/12 05:43:09;;;;;;;2.15;1.42;;;;;;;;;;2615150;54;20109;-59
2021/08/12 05:45:34;;;;;;;6.50;1.85;;;;;;;;;;2615282;54;20015;-59
2021/08/12 05:48:00;;;;;;;2.22;1.48;;;;;;;;;;2616156;54;20002;-59
2021/08/12 05:50:25;;;;;;;1.63;1.20;;;;;;;;;;2615993;54;20011;-59
2021/08/12 05:52:51;;;;;;;2.08;1.30;;;;;;;;;;2615867;54;20477;-59
2021/08/12 05:55:16;;;;;;;3.13;1.83;;;;;;;;;;2615758;47;20054;-59
2021/08/12 05:57:41;;;;;;;2.15;1.58;;;;;;;;;;2615708;54;20014;-59
2021/08/12 06:00:08;;;;;;;1.60;1.08;;;;;;;;;;2616026;54;20025;-59
2021/08/12 06:02:33;;;;;;;1.95;1.33;;;;;;;;;;2615721;54;20279;-59
2021/08/12 06:04:59;;;;;;;2.85;2.00;;;;;;;;;;2615578;54;20035;-59
2021/08/12 06:07:24;;;;;;;2.42;1.67;;;;;;;;;;2615647;54;20011;-59
2021/08/12 06:09:49;;;;;;;3.58;1.85;;;;;;;;;;2615789;54;20015;-59
2021/08/12 06:12:15;;;;;;;1.88;1.20;;;;;;;;;;2615762;54;20027;-60
2021/08/12 06:14:40;;;;;;;5.30;1.80;;;;;;;;;;2615474;47;20481;-59
2021/08/12 06:17:06;;;;;;;2.30;1.35;;;;;;;;;;2615530;54;20021;-59
2021/08/12 06:19:31;;;;;;;2.72;1.42;;;;;;;;;;2615852;54;20022;-59
2021/08/12 06:21:56;;;;;;;3.13;2.10;;;;;;;;;;2615420;54;20022;-59
2021/08/12 06:24:22;;;;;;;3.42;1.83;;;;;;;;;;2615872;54;20042;-59
2021/08/12 06:26:47;;;;;;;1.45;1.00;;;;;;;;;;2615989;54;20018;-59
2021/08/12 06:29:12;;;;;;;1.58;0.98;;;;;;;;;;2615705;54;20041;-59
2021/08/12 06:31:39;;;;;;;1.92;1.23;;;;;;;;;;2615707;54;20049;-59
2021/08/12 06:34:05;;;;;;;4.40;1.38;;;;;;;;;;2616455;31;20425;-66
2021/08/12 06:36:32;;;;;;;2.35;1.60;;;;;;;;;;2615474;50;20022;-66
2021/08/12 06:38:59;;;;;;;1.90;1.23;;;;;;;;;;2615629;54;20033;-66
2021/08/12 06:41:26;;;;;;;1.98;1.40;;;;;;;;;;2615600;54;20102;-66
2021/08/12 06:43:51;;;;;;;1.08;0.80;;;;;;;;;;2615830;54;20122;-67
2021/08/12 06:46:17;;;;;;;2.03;1.38;;;;;;;;;;2615255;54;20027;-67
2021/08/12 06:48:42;;;;;;;1.75;1.33;;;;;;;;;;2615715;47;20027;-66
2021/08/12 06:51:08;;;;;;;1.80;1.40;;;;;;;;;;2615560;54;20006;-67
2021/08/12 06:53:34;;;;;;;2.28;1.40;;;;;;;;;;2615924;39;20393;-66
2021/08/12 06:55:59;;;;;;;2.08;1.35;;;;;;;;;;2615439;54;20027;-66
2021/08/12 06:58:24;;;;;;;2.47;1.90;;;;;;;;;;2615561;54;20018;-66
2021/08/12 07:00:50;;;;;;;3.38;1.95;;;;;;;;;;2615103;54;20030;-67
2021/08/12 07:03:15;;;;;;;1.88;1.33;;;;;;;;;;2615683;54;20011;-67
2021/08/12 07:05:41;;;;;;;2.03;1.20;;;;;;;;;;2616373;54;20487;-66
2021/08/12 07:08:08;;;;;;;1.77;1.30;;;;;;;;;;2616347;54;20480;-67
2021/08/12 07:10:34;;;;;;;2.15;1.55;;;;;;;;;;2616335;54;20019;-67
2021/08/12 07:12:59;;;;;;;2.15;1.55;;;;;;;;;;2616112;54;20032;-66
2021/08/12 07:15:24;;;;;;;1.52;1.08;;;;;;;;;;2616247;54;20009;-66
2021/08/12 07:17:50;;;;;;;1.92;1.35;;;;;;;;;;2616440;54;20015;-66
2021/08/12 07:20:15;;;;;;;1.95;1.60;;;;;;;;;;2616717;54;20014;-67
2021/08/12 07:22:41;;;;;;;2.17;1.60;;;;;;;;;;2616059;54;20037;-66
2021/08/12 07:25:07;;;;;;;5.15;2.78;;;;;;;;;;2616514;54;20050;-66
2021/08/12 07:27:32;;;;;;;3.05;1.92;;;;;;;;;;2616022;54;20018;-66
2021/08/12 07:29:57;;;;;;;2.65;1.70;;;;;;;;;;2616307;54;20014;-67
2021/08/12 07:32:23;;;;;;;1.77;1.20;;;;;;;;;;2616414;54;20500;-66
2021/08/12 07:34:48;;;;;;;2.10;1.30;;;;;;;;;;2616328;54;20014;-66
2021/08/12 07:37:14;;;;;;;2.15;1.58;;;;;;;;;;2616285;54;20106;-67
2021/08/12 07:39:39;;;;;;;2.10;1.42;;;;;;;;;;2616194;54;20029;-67
2021/08/12 07:42:05;;;;;;;2.25;1.65;;;;;;;;;;2616265;54;20022;-66
2021/08/12 07:44:31;;;;;;;1.77;1.33;;;;;;;;;;2616398;54;20007;-67
2021/08/12 07:46:56;;;;;;;6.15;1.40;;;;;;;;;;2616100;54;20018;-66
2021/08/12 07:49:21;;;;;;;2.03;1.40;;;;;;;;;;2616465;54;20122;-66
2021/08/12 07:51:47;;;;;;;2.20;1.58;;;;;;;;;;2616266;54;20022;-66
2021/08/12 07:54:13;;;;;;;2.13;1.55;;;;;;;;;;2616572;54;20015;-66
2021/08/12 07:56:38;;;;;;;1.60;1.10;;;;;;;;;;2615850;54;20046;-67
2021/08/12 07:59:04;;;;;;;2.22;1.80;;;;;;;;;;2616233;54;20021;-66
2021/08/12 08:01:29;;;;;;;2.20;1.77;;;;;;;;;;2616325;54;20148;-67
2021/08/12 08:03:56;;;;;;;2.50;1.80;;;;;;;;;;2615920;54;20015;-66
2021/08/12 08:06:21;;;;;;;3.10;1.95;;;;;;;;;;2616046;54;20029;-67
2021/08/12 08:08:47;;;;;;;2.22;1.70;;;;;;;;;;2616195;54;20015;-66
2021/08/12 08:11:17;;;;;;;1.52;1.15;;;;;;;;;;2615911;54;20026;-66
2021/08/12 08:13:42;;;;;;;3.42;2.15;;;;;;;;;;2616245;54;20019;-66
2021/08/12 08:16:08;;;;;;;3.28;2.15;;;;;;;;;;2615721;54;20141;-66
2021/08/12 08:18:33;;;;;;;4.65;2.47;;;;;;;;;;2616331;54;20028;-67
2021/08/12 08:20:58;;;;;;;2.78;1.98;;;;;;;;;;2616259;54;20037;-66
2021/08/12 08:23:24;;;;;;;2.28;1.60;;;;;;;;;;2616162;54;20110;-67
2021/08/12 08:25:49;;;;;;;3.20;2.47;;;;;;;;;;2616732;39;20369;-66
2021/08/12 08:28:14;;;;;;;2.42;1.88;;;;;;;;;;2615996;54;20026;-66
2021/08/12 08:30:40;;;;;;;2.08;1.70;;;;;;;;;;2616265;54;20014;-66
2021/08/12 08:33:06;;;;;;;3.85;2.08;;;;;;;;;;2616266;54;20014;-66
2021/08/12 08:35:32;;;;;;;1.83;1.40;;;;;;;;;;2615934;54;20010;-66
2021/08/12 08:37:59;;;;;;;2.17;1.55;;;;;;;;;;2616461;39;20429;-66
2021/08/12 08:40:25;;;;;;;4.18;2.13;;;;;;;;;;2615985;54;20015;-65
2021/08/12 08:42:50;;;;;;;2.75;1.95;;;;;;;;;;2616271;54;20495;-65
2021/08/12 08:45:21;;;;;;;1.92;1.55;;;;;;;;;;2616349;54;20015;-66
2021/08/12 08:47:52;;;;;;;2.05;1.80;;;;;;;;;;2615899;54;20014;-66
2021/08/12 08:50:19;;;;;;;2.78;1.80;;;;;;;;;;2616411;54;20065;-65
2021/08/12 08:52:46;;;;;;;2.28;1.75;;;;;;;;;;2616109;54;20489;-67
2021/08/12 08:55:25;;;;;;;2.42;1.33;;;;;;;;;;2616229;54;20010;-66
2021/08/12 08:57:58;;;;;;;2.50;1.85;;;;;;;;;;2616143;54;20023;-68
2021/08/12 09:00:24;;;;;;;2.28;1.80;;;;;;;;;;2616003;54;20017;-67
2021/08/12 09:02:51;;;;;;;2.63;1.80;;;;;;;;;;2616339;54;20014;-66
2021/08/12 09:05:17;;;;;;;2.10;1.60;;;;;;;;;;2615873;54;20024;-66
2021/08/12 09:07:43;;;;;;;2.78;2.22;;;;;;;;;;2615897;47;20023;-67
2021/08/12 09:10:11;;;;;;;2.30;1.75;;;;;;;;;;2616015;54;20011;-67
2021/08/12 09:12:36;;;;;;;2.22;1.63;;;;;;;;;;2615899;54;20055;-66
2021/08/12 09:15:04;;;;;;;2.92;2.30;;;;;;;;;;2616110;54;20018;-66
2021/08/12 09:17:31;;;;;;;2.35;1.95;;;;;;;;;;2615498;54;20015;-67
2021/08/12 09:19:56;;;;;;;2.58;1.85;;;;;;;;;;2616197;54;20038;-67
2021/08/12 09:22:21;;;;;;;2.60;1.95;;;;;;;;;;2616498;31;20121;-67
2021/08/12 09:24:50;;;;;;;2.97;2.05;;;;;;;;;;2616254;54;20040;-66
2021/08/12 09:27:20;;;;;;;2.42;2.03;;;;;;;;;;2615728;54;20014;-67
2021/08/12 09:29:45;;;;;;;3.83;2.38;;;;;;;;;;2616511;39;20428;-66
2021/08/12 09:32:10;;;;;;;3.00;1.85;;;;;;;;;;2616082;54;20011;-66
2021/08/12 09:34:45;;;;;;;2.63;1.92;;;;;;;;;;2616079;54;20015;-66
2021/08/12 09:37:11;;;;;;;3.47;2.33;;;;;;;;;;2616444;39;20588;-67
2021/08/12 09:39:38;;;;;;;2.55;1.80;;;;;;;;;;2616011;54;20068;-67
2021/08/12 09:42:05;;;;;;;2.80;2.25;;;;;;;;;;2615731;39;20082;-66
2021/08/12 09:44:36;;;;;;;2.95;2.50;;;;;;;;;;2615780;54;20026;-67
2021/08/12 09:47:04;;;;;;;3.10;2.10;;;;;;;;;;2615788;54;20031;-66
2021/08/12 09:49:46;;;;;;;2.20;1.75;;;;;;;;;;2615805;54;20018;-67
2021/08/12 09:52:32;;;;;;;3.80;2.33;;;;;;;;;;2615969;54;20126;-66
2021/08/12 09:55:20;;;;;;;3.55;2.75;;;;;;;;;;2615562;54;20011;-67
2021/08/12 09:57:51;;;;;;;3.88;2.45;;;;;;;;;;2615822;54;20019;-67
2021/08/12 10:00:25;;;;;;;2.22;1.70;;;;;;;;;;2615776;54;20030;-65
2021/08/12 10:02:55;;;;;;;3.22;2.58;;;;;;;;;;2615749;54;20069;-67
2021/08/12 10:05:20;;;;;;;2.70;2.30;;;;;;;;;;2615180;54;20019;-65
2021/08/12 10:07:48;;;;;;;4.43;2.75;;;;;;;;;;2615778;54;20102;-67
2021/08/12 10:10:24;;;;;;;3.47;2.63;;;;;;;;;;2616083;54;20031;-65
2021/08/12 10:12:58;;;;;;;2.92;2.00;;;;;;;;;;2616074;54;20022;-65
2021/08/12 10:15:27;;;;;;;2.28;1.73;;;;;;;;;;2615201;54;20015;-66
2021/08/12 10:17:55;;;;;;;3.22;2.38;;;;;;;;;;2615319;54;20570;-67
2021/08/12 10:20:23;;;;;;;3.15;2.28;;;;;;;;;;2615880;54;20062;-65
2021/08/12 10:22:52;;;;;;;2.80;2.05;;;;;;;;;;2615647;54;20018;-66
2021/08/12 10:25:19;;;;;;;2.67;2.15;;;;;;;;;;2615681;54;20058;-65
2021/08/12 10:27:47;;;;;;;3.75;2.30;;;;;;;;;;2615704;54;20025;-66
2021/08/12 10:30:14;;;;;;;2.75;2.25;;;;;;;;;;2615818;54;20033;-66
2021/08/12 10:32:53;;;;;;;3.60;2.55;;;;;;;;;;2614808;54;20906;-66
2021/08/12 10:35:19;;;;;;;2.55;1.90;;;;;;;;;;2615444;54;20030;-66
2021/08/12 10:37:44;;;;;;;2.47;1.92;;;;;;;;;;2615815;54;20010;-66
2021/08/12 10:40:13;;;;;;;3.33;2.83;;;;;;;;;;2615606;54;20025;-67
2021/08/12 10:42:47;;;;;;;3.08;2.45;;;;;;;;;;2614893;54;20030;-67
2021/08/12 10:45:17;;;;;;;2.72;2.08;;;;;;;;;;2616545;54;20018;-66
2021/08/12 10:47:56;;;;;;;3.20;2.47;;;;;;;;;;2616321;54;20057;-66
2021/08/12 10:50:21;;;;;;;2.55;1.95;;;;;;;;;;2616357;54;20023;-66
2021/08/12 10:53:04;;;;;;;2.42;1.80;;;;;;;;;;2614479;54;20038;-66
2021/08/12 10:55:30;;;;;;;3.05;2.30;;;;;;;;;;2616422;54;20061;-67
2021/08/12 10:58:17;;;;;;;3.13;2.38;;;;;;;;;;2616061;54;20022;-66
2021/08/12 11:00:49;;;;;;;3.33;2.50;;;;;;;;;;2616470;54;20065;-66
2021/08/12 11:03:43;;;;;;;3.83;3.42;;;;;;;;;;2616654;39;20365;-67
2021/08/12 11:06:18;;;;;;;3.58;2.83;;;;;;;;;;2616536;54;20110;-66
2021/08/12 11:08:50;;;;;;;3.35;2.70;;;;;;;;;;2616405;54;20042;-66
2021/08/12 11:11:28;;;;;;;3.20;2.40;;;;;;;;;;2616509;54;20035;-66
2021/08/12 11:13:57;;;;;;;3.38;2.15;;;;;;;;;;2615571;54;20038;-66
2021/08/12 11:16:25;;;;;;;5.47;3.53;;;;;;;;;;2615627;54;20051;-66
2021/08/12 11:18:56;;;;;;;3.17;2.45;;;;;;;;;;2616511;54;20030;-67
2021/08/12 11:21:30;;;;;;;3.55;3.05;;;;;;;;;;2616495;54;20019;-67
2021/08/12 11:24:03;;;;;;;3.88;3.00;;;;;;;;;;2616100;54;20010;-67
2021/08/12 11:26:41;;;;;;;2.70;2.38;;;;;;;;;;2616526;48;20018;-67
2021/08/12 11:29:30;;;;;;;2.78;2.00;;;;;;;;;;2616342;54;20029;-67
2021/08/12 11:31:58;;;;;;;3.90;3.15;;;;;;;;;;2615993;54;20041;-66
2021/08/12 11:34:28;;;;;;;3.65;2.47;;;;;;;;;;2612897;54;20073;-66
2021/08/12 11:37:17;;;;;;;3.65;2.72;;;;;;;;;;2614986;54;20011;-67
2021/08/12 11:39:53;;;;;;;3.42;2.78;;;;;;;;;;2614168;54;20741;-65
2021/08/12 11:42:36;;;;;;;3.22;2.63;;;;;;;;;;2614536;54;20018;-66
2021/08/12 11:45:09;;;;;;;3.17;2.42;;;;;;;;;;2615352;39;20455;-66
2021/08/12 11:47:36;;;;;;;3.28;2.42;;;;;;;;;;2615144;39;20455;-66
2021/08/12 11:50:04;;;;;;;2.97;2.55;;;;;;;;;;2614716;54;20022;-66
2021/08/12 11:52:35;;;;;;;2.92;2.10;;;;;;;;;;2614577;54;20485;-67
2021/08/12 11:55:10;;;;;;;3.42;2.40;;;;;;;;;;2614846;54;20031;-65
2021/08/12 11:57:52;;;;;;;4.13;3.20;;;;;;;;;;2615124;54;20017;-66
2021/08/12 12:00:23;;;;;;;2.60;2.05;;;;;;;;;;2614719;54;20014;-66
2021/08/12 12:03:06;;;;;;;2.47;1.95;;;;;;;;;;2614753;54;20030;-66
2021/08/12 12:05:35;;;;;;;2.90;2.15;;;;;;;;;;2615210;54;20048;-66
2021/08/12 12:08:05;;;;;;;3.05;2.75;;;;;;;;;;2616232;54;20015;-66
2021/08/12 12:10:40;;;;;;;2.95;2.53;;;;;;;;;;2615924;54;20062;-66
2021/08/12 12:13:11;;;;;;;3.05;2.75;;;;;;;;;;2616310;39;20461;-66
2021/08/12 12:15:49;;;;;;;2.95;2.42;;;;;;;;;;2615808;54;20023;-66
2021/08/12 12:18:30;;;;;;;5.07;3.22;;;;;;;;;;2616378;54;20033;-66
2021/08/12 12:21:12;;;;;;;3.20;2.72;;;;;;;;;;2615942;54;20019;-66
2021/08/12 12:23:41;;;;;;;2.60;2.03;;;;;;;;;;2616173;54;20023;-65
2021/08/12 12:26:07;;;;;;;2.75;2.45;;;;;;;;;;2616584;39;20793;-65
2021/08/12 12:28:40;;;;;;;3.30;2.40;;;;;;;;;;2616079;54;20018;-65
2021/08/12 12:31:22;;;;;;;3.00;2.65;;;;;;;;;;2616269;54;20043;-65
2021/08/12 12:34:00;;;;;;;2.90;2.08;;;;;;;;;;2616003;54;20019;-66
2021/08/12 12:36:25;;;;;;;2.70;2.20;;;;;;;;;;2616178;54;20010;-66
2021/08/12 12:38:52;;;;;;;4.03;3.45;;;;;;;;;;2615959;54;20053;-66
2021/08/12 12:41:17;;;;;;;3.15;2.70;;;;;;;;;;2616286;54;20026;-67
2021/08/12 12:43:43;;;;;;;2.92;2.13;;;;;;;;;;2616246;54;20119;-66
2021/08/12 12:46:08;;;;;;;3.03;2.20;;;;;;;;;;2616218;54;20014;-66
2021/08/12 12:48:35;;;;;;;3.00;2.35;;;;;;;;;;2616344;39;20558;-66
2021/08/12 12:51:03;;;;;;;3.40;2.42;;;;;;;;;;2616154;54;20030;-66
2021/08/12 12:53:33;;;;;;;2.80;2.33;;;;;;;;;;2616044;54;20033;-66
2021/08/12 12:56:00;;;;;;;2.60;2.15;;;;;;;;;;2615878;54;20019;-65
2021/08/12 12:58:37;;;;;;;3.20;2.58;;;;;;;;;;2616189;54;20039;-66
2021/08/12 13:01:07;;;;;;;2.72;1.98;;;;;;;;;;2615941;54;20034;-59
2021/08/12 13:03:34;;;;;;;2.95;2.22;;;;;;;;;;2615596;54;20023;-59
2021/08/12 13:06:02;;;;;;;2.70;2.25;;;;;;;;;;2616160;54;20045;-59
2021/08/12 13:08:49;;;;;;;2.80;2.50;;;;;;;;;;2616612;31;20414;-58
2021/08/12 13:11:28;;;;;;;3.15;2.65;;;;;;;;;;2616066;54;20110;-59
2021/08/12 13:14:05;;;;;;;2.72;2.13;;;;;;;;;;2616099;54;20106;-58
2021/08/12 13:16:40;;;;;;;3.03;2.63;;;;;;;;;;2615846;47;20045;-59
2021/08/12 13:19:19;;;;;;;2.88;2.08;;;;;;;;;;2616272;54;20476;-58
2021/08/12 13:21:47;;;;;;;2.90;2.35;;;;;;;;;;2616270;39;20365;-59
2021/08/12 13:24:18;;;;;;;2.70;2.28;;;;;;;;;;2616150;54;20018;-58
2021/08/12 13:26:57;;;;;;;3.35;3.05;;;;;;;;;;2616297;39;20376;-58
2021/08/12 13:29:41;;;;;;;4.17;3.77;;;;;;;;;;2615840;54;20017;-58
2021/08/12 13:32:12;;;;;;;3.15;2.45;;;;;;;;;;2616051;54;20030;-58
2021/08/12 13:34:41;;;;;;;3.17;2.70;;;;;;;;;;2616235;39;20334;-59
2021/08/12 13:37:06;;;;;;;2.72;2.30;;;;;;;;;;2616026;54;20066;-58
2021/08/12 13:39:33;;;;;;;2.95;2.47;;;;;;;;;;2615473;54;20572;-59
2021/08/12 13:42:06;;;;;;;2.63;2.38;;;;;;;;;;2616162;54;20058;-59
2021/08/12 13:44:33;;;;;;;3.17;2.33;;;;;;;;;;2615702;54;20011;-59
2021/08/12 13:47:02;;;;;;;2.90;2.40;;;;;;;;;;2616089;54;20019;-59
2021/08/12 13:49:28;;;;;;;3.00;2.33;;;;;;;;;;2615734;54;20054;-59
2021/08/12 13:51:55;;;;;;;3.60;2.88;;;;;;;;;;2615801;54;20018;-59
2021/08/12 13:54:21;;;;;;;3.00;2.38;;;;;;;;;;2615964;54;20077;-59
2021/08/12 13:56:47;;;;;;;3.38;2.92;;;;;;;;;;2616164;39;20369;-59
2021/08/12 13:59:13;;;;;;;3.10;2.60;;;;;;;;;;2616078;47;20014;-59
2021/08/12 14:01:39;;;;;;;3.30;2.50;;;;;;;;;;2616249;39;20365;-59
2021/08/12 14:04:05;;;;;;;3.00;2.22;;;;;;;;;;2615523;54;20034;-59
2021/08/12 14:06:31;;;;;;;3.22;2.38;;;;;;;;;;2615491;54;20021;-59
2021/08/12 14:08:57;;;;;;;3.40;2.72;;;;;;;;;;2615843;54;20057;-59
2021/08/12 14:11:22;;;;;;;2.55;1.90;;;;;;;;;;2615880;54;20014;-59
2021/08/12 14:13:48;;;;;;;3.75;2.67;;;;;;;;;;2616030;54;20042;-59
2021/08/12 14:16:14;;;;;;;3.40;2.75;;;;;;;;;;2616596;54;20019;-59
2021/08/12 14:18:43;;;;;;;3.55;2.65;;;;;;;;;;2616623;54;20014;-59
2021/08/12 14:21:12;;;;;;;3.45;2.75;;;;;;;;;;2615675;54;20059;-59
2021/08/12 14:23:38;;;;;;;3.13;2.50;;;;;;;;;;2616591;54;20022;-59
2021/08/12 14:26:05;;;;;;;4.45;2.80;;;;;;;;;;2616631;54;20061;-59
2021/08/12 14:28:31;;;;;;;2.85;2.55;;;;;;;;;;2615848;54;20014;-59
2021/08/12 14:30:56;;;;;;;3.53;2.70;;;;;;;;;;2616571;54;20038;-59
2021/08/12 14:33:22;;;;;;;3.30;2.58;;;;;;;;;;2616446;54;20488;-59
2021/08/12 14:35:47;;;;;;;5.50;2.60;;;;;;;;;;2616615;54;20133;-59
2021/08/12 14:38:12;;;;;;;2.92;2.47;;;;;;;;;;2617164;39;20437;-59
2021/08/12 14:40:42;;;;;;;2.80;2.30;;;;;;;;;;2616400;54;20046;-59
2021/08/12 14:43:07;;;;;;;2.53;2.08;;;;;;;;;;2616682;52;20030;-59
2021/08/12 14:45:33;;;;;;;2.63;2.05;;;;;;;;;;2616412;54;20015;-59
2021/08/12 14:47:58;;;;;;;3.13;2.45;;;;;;;;;;2616778;54;20873;-59
2021/08/12 14:50:24;;;;;;;2.20;1.80;;;;;;;;;;2616228;54;20026;-59